Time;durP1;ratioP1;P1;durP2;ratioP2;P2;SDS_P1;SDS_P2;PMS_P1;PMS_P2;Temp;Humidity;BMP_temperature;BMP_pressure;BME280_temperature;BME280_humidity;BME280_pressure;Samples;Min_cycle;Max_cycle;Signal;HPM_P1;HPM_P2
2022/04/01 00:00:27;;;;;;;6.60;1.60;;;;;;;;;;5035563;28;20693;-15
2022/04/01 00:02:54;;;;;;;6.72;1.35;;;;;;;;;;5035367;28;20797;-16
2022/04/01 00:05:22;;;;;;;3.72;1.33;;;;;;;;;;5030607;28;20288;-15
2022/04/01 00:07:50;;;;;;;12.40;1.60;;;;;;;;;;5030828;28;20238;-15
2022/04/01 00:10:18;;;;;;;14.27;1.77;;;;;;;;;;5030883;28;20226;-16
2022/04/01 00:12:46;;;;;;;2.63;1.30;;;;;;;;;;5030841;28;20258;-15
2022/04/01 00:15:13;;;;;;;2.22;1.00;;;;;;;;;;5031022;28;20710;-15
2022/04/01 00:17:41;;;;;;;3.20;1.13;;;;;;;;;;5031247;28;20846;-16
2022/04/01 00:20:09;;;;;;;1.90;1.00;;;;;;;;;;5031231;28;20309;-15
2022/04/01 00:22:37;;;;;;;7.50;1.42;;;;;;;;;;5028489;28;20304;-16
2022/04/01 00:25:06;;;;;;;1.63;1.02;;;;;;;;;;5031443;28;20230;-16
2022/04/01 00:27:33;;;;;;;1.60;1.10;;;;;;;;;;5030729;28;20239;-15
2022/04/01 00:30:01;;;;;;;2.38;1.10;;;;;;;;;;5031514;28;20231;-16
2022/04/01 00:32:29;;;;;;;4.68;1.00;;;;;;;;;;5030934;28;20617;-15
2022/04/01 00:34:56;;;;;;;1.95;1.02;;;;;;;;;;5028461;28;20629;-15
2022/04/01 00:37:23;;;;;;;2.28;1.10;;;;;;;;;;5030673;28;20238;-16
2022/04/01 00:39:51;;;;;;;1.98;1.20;;;;;;;;;;5030780;28;20288;-15
2022/04/01 00:42:19;;;;;;;2.90;1.00;;;;;;;;;;5030886;28;20238;-16
2022/04/01 00:44:47;;;;;;;1.83;1.08;;;;;;;;;;5031026;28;20717;-15
2022/04/01 00:47:18;;;;;;;2.65;1.10;;;;;;;;;;5027755;28;20380;-16
2022/04/01 00:49:45;;;;;;;1.65;1.05;;;;;;;;;;5029467;28;20792;-15
2022/04/01 00:52:13;;;;;;;1.85;1.20;;;;;;;;;;5031103;28;20285;-16
2022/04/01 00:54:40;;;;;;;1.98;0.90;;;;;;;;;;5031455;28;20237;-15
2022/04/01 00:57:10;;;;;;;1.52;1.10;;;;;;;;;;5034597;28;20226;-15
2022/04/01 00:59:39;;;;;;;3.15;1.25;;;;;;;;;;5033655;28;20223;-15
2022/04/01 01:02:08;;;;;;;1.52;1.08;;;;;;;;;;5034306;28;20234;-16
2022/04/01 01:04:36;;;;;;;1.63;0.90;;;;;;;;;;5035774;28;20234;-15
2022/04/01 01:07:03;;;;;;;5.50;1.23;;;;;;;;;;5029677;28;20982;-16
2022/04/01 01:09:38;;;;;;;2.85;1.20;;;;;;;;;;5031446;28;20550;-15
2022/04/01 01:12:06;;;;;;;4.75;1.20;;;;;;;;;;5033836;28;21078;-15
2022/04/01 01:14:35;;;;;;;1.38;1.20;;;;;;;;;;5043097;28;20720;-15
2022/04/01 01:17:04;;;;;;;2.22;1.27;;;;;;;;;;5040999;28;20234;-15
2022/04/01 01:19:31;;;;;;;1.27;1.17;;;;;;;;;;5035566;28;20700;-15
2022/04/01 01:21:59;;;;;;;1.23;1.02;;;;;;;;;;5037906;28;20929;-15
2022/04/01 01:24:28;;;;;;;1.95;1.30;;;;;;;;;;5035405;28;20239;-16
2022/04/01 01:26:55;;;;;;;1.38;1.27;;;;;;;;;;5038465;28;20753;-15
2022/04/01 01:29:23;;;;;;;2.38;1.33;;;;;;;;;;5036629;28;21093;-15
2022/04/01 01:31:51;;;;;;;1.38;1.10;;;;;;;;;;5040654;28;20226;-15
2022/04/01 01:34:18;;;;;;;1.77;1.23;;;;;;;;;;5038200;28;20237;-15
2022/04/01 01:36:45;;;;;;;4.95;1.48;;;;;;;;;;5038276;28;20234;-16
2022/04/01 01:39:13;;;;;;;1.42;1.10;;;;;;;;;;5040715;28;20227;-15
2022/04/01 01:41:41;;;;;;;1.40;1.30;;;;;;;;;;5035999;28;20238;-15
2022/04/01 01:44:10;;;;;;;2.08;1.50;;;;;;;;;;5040783;28;20240;-16
2022/04/01 01:46:37;;;;;;;1.60;1.50;;;;;;;;;;5038718;28;20629;-15
2022/04/01 01:49:04;;;;;;;1.75;1.20;;;;;;;;;;5036492;28;20237;-16
2022/04/01 01:57:04;;;;;;;1.35;1.23;;;;;;;;;;5038083;28;20237;-15
2022/04/01 01:59:31;;;;;;;1.90;1.40;;;;;;;;;;5040638;28;20241;-16
2022/04/01 02:02:00;;;;;;;1.40;1.30;;;;;;;;;;5041530;28;20234;-16
2022/04/01 02:04:27;;;;;;;1.83;1.35;;;;;;;;;;5039062;28;20242;-15
2022/04/01 02:06:54;;;;;;;1.70;1.48;;;;;;;;;;5040254;28;22234;-16
2022/04/01 02:09:22;;;;;;;2.83;1.30;;;;;;;;;;5042852;28;20235;-16
2022/04/01 02:11:50;;;;;;;2.08;1.38;;;;;;;;;;5042662;28;20235;-15
2022/04/01 02:14:18;;;;;;;2.00;1.40;;;;;;;;;;5039267;28;20728;-16
2022/04/01 02:16:46;;;;;;;1.52;1.33;;;;;;;;;;5041250;28;20235;-15
2022/04/01 02:19:16;;;;;;;1.73;1.40;;;;;;;;;;5041432;28;20230;-16
2022/04/01 02:21:43;;;;;;;2.42;1.30;;;;;;;;;;5035473;28;20250;-15
2022/04/01 02:24:13;;;;;;;2.55;1.73;;;;;;;;;;5039401;28;20237;-15
2022/04/01 02:26:41;;;;;;;4.03;1.60;;;;;;;;;;5036977;28;20665;-15
2022/04/01 02:29:10;;;;;;;1.60;1.20;;;;;;;;;;5039605;28;20249;-16
2022/04/01 02:31:38;;;;;;;1.30;1.13;;;;;;;;;;5037346;28;20231;-16
2022/04/01 02:34:06;;;;;;;1.75;1.25;;;;;;;;;;5021574;28;21039;-15
2022/04/01 02:36:33;;;;;;;0.93;0.90;;;;;;;;;;5037040;28;20234;-16
2022/04/01 02:39:01;;;;;;;1.52;1.20;;;;;;;;;;5041327;28;20910;-15
2022/04/01 02:41:29;;;;;;;1.30;1.10;;;;;;;;;;5041115;28;20226;-16
2022/04/01 02:44:08;;;;;;;2.88;1.17;;;;;;;;;;5042089;28;20242;-15
2022/04/01 02:46:36;;;;;;;1.70;1.60;;;;;;;;;;5036989;28;20285;-15
2022/04/01 02:49:06;;;;;;;2.65;1.30;;;;;;;;;;5037428;28;20241;-15
2022/04/01 02:51:36;;;;;;;1.40;1.13;;;;;;;;;;5038690;28;20232;-16
2022/04/01 02:54:04;;;;;;;1.77;1.40;;;;;;;;;;5037371;28;20700;-15
2022/04/01 02:56:32;;;;;;;2.05;1.20;;;;;;;;;;5041264;28;20701;-15
2022/04/01 02:59:00;;;;;;;2.55;1.25;;;;;;;;;;5040746;28;20236;-16
2022/04/01 03:01:28;;;;;;;1.45;1.30;;;;;;;;;;5041375;28;20273;-16
2022/04/01 03:03:55;;;;;;;1.60;1.33;;;;;;;;;;5042707;28;20230;-15
2022/04/01 03:06:24;;;;;;;1.50;1.10;;;;;;;;;;5040110;28;20231;-15
2022/04/01 03:08:52;;;;;;;1.23;1.13;;;;;;;;;;5032585;28;20618;-16
2022/04/01 03:11:19;;;;;;;1.60;1.17;;;;;;;;;;5036101;28;20234;-15
2022/04/01 03:13:46;;;;;;;1.33;1.13;;;;;;;;;;5034985;28;20978;-15
2022/04/01 03:16:14;;;;;;;1.38;1.25;;;;;;;;;;5035597;28;20243;-15
2022/04/01 03:18:41;;;;;;;2.00;1.50;;;;;;;;;;5034932;28;20318;-15
2022/04/01 03:21:09;;;;;;;2.28;1.20;;;;;;;;;;5033603;28;20230;-15
2022/04/01 03:23:39;;;;;;;1.65;1.30;;;;;;;;;;5034337;28;20246;-15
2022/04/01 03:26:06;;;;;;;1.98;0.90;;;;;;;;;;5031690;28;20318;-15
2022/04/01 03:28:38;;;;;;;2.17;1.20;;;;;;;;;;5016309;28;21093;-15
2022/04/01 03:31:06;;;;;;;3.03;1.10;;;;;;;;;;5030984;28;20223;-15
2022/04/01 03:33:34;;;;;;;1.27;1.17;;;;;;;;;;5033690;28;20230;-15
2022/04/01 03:36:01;;;;;;;2.30;1.20;;;;;;;;;;5033827;28;20234;-16
2022/04/01 03:38:28;;;;;;;1.15;1.02;;;;;;;;;;5037193;28;20607;-16
2022/04/01 03:40:57;;;;;;;3.53;1.08;;;;;;;;;;5035590;28;20227;-16
2022/04/01 03:43:25;;;;;;;1.40;1.00;;;;;;;;;;5034544;28;20241;-16
2022/04/01 03:45:53;;;;;;;1.50;1.23;;;;;;;;;;5035838;28;20230;-15
2022/04/01 03:48:23;;;;;;;1.02;0.93;;;;;;;;;;5035818;28;20243;-16
2022/04/01 03:50:52;;;;;;;1.38;1.20;;;;;;;;;;5034245;28;20234;-15
2022/04/01 03:53:22;;;;;;;2.15;1.17;;;;;;;;;;5032680;28;20230;-15
2022/04/01 03:55:49;;;;;;;1.38;1.02;;;;;;;;;;5033182;28;20227;-15
2022/04/01 03:58:18;;;;;;;1.35;1.05;;;;;;;;;;5035673;28;21007;-15
2022/04/01 04:00:45;;;;;;;1.08;0.88;;;;;;;;;;5032493;28;20238;-15
2022/04/01 04:03:13;;;;;;;1.65;1.13;;;;;;;;;;5034027;28;20297;-15
2022/04/01 04:05:40;;;;;;;1.30;1.13;;;;;;;;;;5035160;28;20234;-16
2022/04/01 04:08:10;;;;;;;1.73;1.00;;;;;;;;;;5034730;28;20231;-15
2022/04/01 04:10:38;;;;;;;1.00;0.90;;;;;;;;;;5035717;28;20261;-16
2022/04/01 04:13:07;;;;;;;1.35;1.08;;;;;;;;;;5035401;28;20266;-16
2022/04/01 04:15:39;;;;;;;1.20;1.10;;;;;;;;;;5031230;28;20237;-16
2022/04/01 04:18:07;;;;;;;1.00;0.90;;;;;;;;;;5034530;28;20242;-16
2022/04/01 04:20:36;;;;;;;1.38;1.10;;;;;;;;;;5033030;28;20226;-15
2022/04/01 04:23:07;;;;;;;1.55;1.05;;;;;;;;;;5032554;28;20250;-16
2022/04/01 04:25:35;;;;;;;1.60;1.00;;;;;;;;;;5034076;28;20230;-16
2022/04/01 04:28:02;;;;;;;1.20;1.00;;;;;;;;;;5037670;28;20230;-15
2022/04/01 04:30:32;;;;;;;0.73;0.70;;;;;;;;;;5036222;28;20230;-15
2022/04/01 04:33:04;;;;;;;1.25;1.02;;;;;;;;;;5035661;28;20226;-15
2022/04/01 04:35:31;;;;;;;0.80;0.70;;;;;;;;;;5034624;28;20234;-16
2022/04/01 04:37:58;;;;;;;2.53;1.23;;;;;;;;;;5033151;28;20229;-16
2022/04/01 04:40:28;;;;;;;1.10;0.98;;;;;;;;;;5037070;28;20222;-15
2022/04/01 04:42:55;;;;;;;1.52;0.90;;;;;;;;;;5033162;28;20237;-15
2022/04/01 04:45:23;;;;;;;2.00;1.10;;;;;;;;;;5037662;28;20748;-16
2022/04/01 04:47:50;;;;;;;1.10;0.88;;;;;;;;;;5033386;28;20223;-16
2022/04/01 04:50:19;;;;;;;1.13;0.75;;;;;;;;;;5036789;28;20243;-16
2022/04/01 04:52:48;;;;;;;1.20;0.85;;;;;;;;;;5036374;28;21320;-15
2022/04/01 04:55:17;;;;;;;1.05;0.80;;;;;;;;;;5037168;28;20230;-16
2022/04/01 04:57:44;;;;;;;1.30;0.82;;;;;;;;;;5036560;28;20235;-16
2022/04/01 05:00:12;;;;;;;1.00;0.80;;;;;;;;;;5035398;28;20227;-16
2022/04/01 05:02:42;;;;;;;1.55;0.82;;;;;;;;;;5037504;28;20241;-16
2022/04/01 05:05:12;;;;;;;1.15;0.82;;;;;;;;;;5035862;28;20231;-16
2022/04/01 05:07:43;;;;;;;1.10;0.80;;;;;;;;;;5037640;28;20228;-16
2022/04/01 05:10:16;;;;;;;1.80;1.00;;;;;;;;;;5031817;28;20801;-16
2022/04/01 05:12:45;;;;;;;0.95;0.70;;;;;;;;;;5037438;28;20235;-15
2022/04/01 05:15:12;;;;;;;0.70;0.70;;;;;;;;;;5037770;28;21023;-16
2022/04/01 05:17:43;;;;;;;1.02;0.65;;;;;;;;;;5037864;28;20229;-15
2022/04/01 05:20:15;;;;;;;1.10;0.85;;;;;;;;;;5038404;28;20697;-16
2022/04/01 05:22:47;;;;;;;1.58;0.70;;;;;;;;;;5035783;28;20245;-16
2022/04/01 05:25:16;;;;;;;1.08;0.77;;;;;;;;;;5035177;28;20227;-16
2022/04/01 05:27:47;;;;;;;1.52;0.70;;;;;;;;;;5040871;28;20222;-15
2022/04/01 05:30:16;;;;;;;1.42;0.70;;;;;;;;;;5037180;28;20246;-15
2022/04/01 05:32:50;;;;;;;1.10;0.70;;;;;;;;;;5034568;28;20238;-16
2022/04/01 05:35:17;;;;;;;1.35;0.80;;;;;;;;;;5033171;28;20226;-16
2022/04/01 05:37:46;;;;;;;1.67;0.80;;;;;;;;;;5038659;28;20588;-15
2022/04/01 05:40:15;;;;;;;1.23;0.73;;;;;;;;;;5035222;28;20227;-15
2022/04/01 05:42:42;;;;;;;1.15;0.68;;;;;;;;;;5038921;28;20245;-16
2022/04/01 05:45:09;;;;;;;1.65;0.80;;;;;;;;;;5040565;28;20732;-16
2022/04/01 05:47:37;;;;;;;1.00;0.73;;;;;;;;;;5042197;28;20697;-15
2022/04/01 05:50:06;;;;;;;1.05;0.80;;;;;;;;;;5048808;28;20242;-16
2022/04/01 05:52:34;;;;;;;1.35;0.70;;;;;;;;;;5045420;28;20234;-16
2022/04/01 05:55:02;;;;;;;2.25;0.80;;;;;;;;;;5048509;28;20230;-16
2022/04/01 05:57:30;;;;;;;0.77;0.60;;;;;;;;;;5052662;28;20238;-16
2022/04/01 05:59:57;;;;;;;2.45;0.90;;;;;;;;;;5053889;28;20704;-15
2022/04/01 06:02:33;;;;;;;0.88;0.70;;;;;;;;;;5052488;28;20234;-16
2022/04/01 06:05:05;;;;;;;2.95;0.90;;;;;;;;;;5048212;28;20229;-16
2022/04/01 06:07:35;;;;;;;0.60;0.60;;;;;;;;;;5053173;28;20231;-16
2022/04/01 06:10:08;;;;;;;1.75;0.95;;;;;;;;;;5045309;28;20245;-15
2022/04/01 06:12:36;;;;;;;1.63;0.73;;;;;;;;;;5045449;28;21009;-16
2022/04/01 06:15:07;;;;;;;1.98;0.77;;;;;;;;;;5045186;28;20229;-15
2022/04/01 06:17:37;;;;;;;0.90;0.70;;;;;;;;;;5052682;28;20321;-16
2022/04/01 06:20:07;;;;;;;2.72;0.70;;;;;;;;;;5045180;28;20234;-16
2022/04/01 06:22:36;;;;;;;0.90;0.70;;;;;;;;;;5044704;28;20323;-15
2022/04/01 06:25:11;;;;;;;1.58;0.75;;;;;;;;;;5045012;28;20241;-15
2022/04/01 06:27:39;;;;;;;1.75;0.73;;;;;;;;;;5041093;28;21022;-16
2022/04/01 06:30:07;;;;;;;1.45;0.60;;;;;;;;;;5052501;28;20242;-16
2022/04/01 06:32:38;;;;;;;2.90;0.82;;;;;;;;;;5048888;28;20236;-16
2022/04/01 06:35:06;;;;;;;1.65;0.88;;;;;;;;;;5050009;28;20609;-15
2022/04/01 06:37:34;;;;;;;2.17;0.80;;;;;;;;;;5037527;28;20241;-15
2022/04/01 06:40:03;;;;;;;2.50;0.98;;;;;;;;;;5041707;28;20230;-16
2022/04/01 06:42:32;;;;;;;1.58;0.88;;;;;;;;;;5043261;28;20222;-16
2022/04/01 06:45:00;;;;;;;1.35;0.85;;;;;;;;;;5041721;28;20230;-16
2022/04/01 06:47:27;;;;;;;0.63;0.60;;;;;;;;;;5040394;28;20234;-16
2022/04/01 06:49:55;;;;;;;1.48;0.93;;;;;;;;;;5040069;28;20747;-16
2022/04/01 06:52:22;;;;;;;2.00;0.70;;;;;;;;;;5041796;28;20231;-16
2022/04/01 06:54:49;;;;;;;1.30;0.80;;;;;;;;;;5042225;28;20234;-16
2022/04/01 06:57:17;;;;;;;3.53;0.82;;;;;;;;;;5052467;28;20751;-16
2022/04/01 06:59:45;;;;;;;3.45;0.80;;;;;;;;;;5051389;28;20230;-16
2022/04/01 07:02:13;;;;;;;2.17;0.93;;;;;;;;;;5052345;28;20271;-16
2022/04/01 07:04:40;;;;;;;3.15;0.80;;;;;;;;;;5052766;28;20292;-16
2022/04/01 07:07:08;;;;;;;2.53;1.08;;;;;;;;;;5052371;28;20330;-16
2022/04/01 07:09:36;;;;;;;3.63;0.95;;;;;;;;;;5044395;28;20242;-16
2022/04/01 07:12:04;;;;;;;3.55;1.00;;;;;;;;;;5042858;28;20242;-16
2022/04/01 07:14:32;;;;;;;4.13;0.95;;;;;;;;;;5051891;28;20230;-16
2022/04/01 07:17:01;;;;;;;5.45;0.90;;;;;;;;;;5051662;28;20234;-16
2022/04/01 07:19:28;;;;;;;1.65;0.70;;;;;;;;;;5052054;28;20717;-16
2022/04/01 07:21:58;;;;;;;5.05;1.10;;;;;;;;;;5050491;28;20280;-16
2022/04/01 07:24:26;;;;;;;1.48;0.90;;;;;;;;;;5044901;28;20735;-15
2022/04/01 07:26:53;;;;;;;1.35;0.60;;;;;;;;;;5051624;28;20241;-16
2022/04/01 07:29:21;;;;;;;3.22;0.90;;;;;;;;;;5051960;28;20222;-16
2022/04/01 07:34:40;;;;;;;2.33;0.77;;;;;;;;;;5044946;28;20314;-16
2022/04/01 07:37:08;;;;;;;1.45;0.80;;;;;;;;;;5051187;28;20238;-15
2022/04/01 07:39:35;;;;;;;3.13;0.90;;;;;;;;;;5043950;28;20230;-16
2022/04/01 07:42:02;;;;;;;1.48;0.65;;;;;;;;;;5051082;28;20972;-16
2022/04/01 07:44:30;;;;;;;1.58;0.85;;;;;;;;;;5046927;28;20245;-16
2022/04/01 07:46:57;;;;;;;1.60;1.17;;;;;;;;;;5051222;28;20240;-15
2022/04/01 07:49:25;;;;;;;3.33;0.93;;;;;;;;;;5052259;28;20230;-15
2022/04/01 07:52:14;;;;;;;3.08;0.80;;;;;;;;;;5042260;28;20238;-15
2022/04/01 07:54:46;;;;;;;1.40;0.60;;;;;;;;;;5050425;28;20293;-16
2022/04/01 07:57:14;;;;;;;1.40;0.60;;;;;;;;;;5051183;28;20280;-15
2022/04/01 07:59:41;;;;;;;1.75;1.02;;;;;;;;;;5049268;28;20226;-16
2022/04/01 08:02:09;;;;;;;3.03;0.90;;;;;;;;;;5050894;28;20265;-16
2022/04/01 08:04:36;;;;;;;1.80;0.70;;;;;;;;;;5051558;28;20238;-15
2022/04/01 08:07:08;;;;;;;1.40;0.80;;;;;;;;;;5043910;28;20256;-15
2022/04/01 08:09:37;;;;;;;2.13;0.70;;;;;;;;;;5051629;28;20226;-16
2022/04/01 08:12:05;;;;;;;1.98;0.70;;;;;;;;;;5043842;28;20244;-16
2022/04/01 08:14:33;;;;;;;1.73;0.60;;;;;;;;;;5049803;28;20245;-16
2022/04/01 08:17:00;;;;;;;3.08;0.80;;;;;;;;;;5045133;28;21071;-16
2022/04/01 08:19:28;;;;;;;1.20;0.60;;;;;;;;;;5048583;28;20285;-15
2022/04/01 08:21:57;;;;;;;2.60;0.50;;;;;;;;;;5049463;28;20230;-16
2022/04/01 08:24:25;;;;;;;1.52;0.40;;;;;;;;;;5050045;28;20230;-16
2022/04/01 08:26:55;;;;;;;2.28;0.73;;;;;;;;;;5050560;28;20234;-16
2022/04/01 08:29:23;;;;;;;1.65;0.77;;;;;;;;;;5037683;28;20222;-16
2022/04/01 08:31:50;;;;;;;4.95;0.65;;;;;;;;;;5041294;28;20655;-16
2022/04/01 08:34:18;;;;;;;1.15;0.60;;;;;;;;;;5041379;28;20234;-16
2022/04/01 08:36:45;;;;;;;0.80;0.52;;;;;;;;;;5031223;28;20235;-16
2022/04/01 08:39:13;;;;;;;4.18;0.73;;;;;;;;;;5032320;28;20239;-15
2022/04/01 08:41:40;;;;;;;16.88;1.05;;;;;;;;;;5040939;28;20415;-16
2022/04/01 08:44:09;;;;;;;11.30;0.80;;;;;;;;;;5032187;28;20241;-16
2022/04/01 08:46:36;;;;;;;8.13;1.00;;;;;;;;;;5043083;28;20233;-16
2022/04/01 08:49:06;;;;;;;7.88;0.90;;;;;;;;;;5041399;28;20254;-16
2022/04/01 08:51:34;;;;;;;10.73;0.70;;;;;;;;;;5045877;28;20242;-16
2022/04/01 08:54:02;;;;;;;3.30;0.80;;;;;;;;;;5051222;28;20230;-16
2022/04/01 08:56:29;;;;;;;3.13;0.90;;;;;;;;;;5050588;28;20705;-15
2022/04/01 08:58:56;;;;;;;6.03;0.60;;;;;;;;;;5050684;28;20234;-16
2022/04/01 09:01:25;;;;;;;4.47;0.82;;;;;;;;;;5044890;28;20230;-15
2022/04/01 09:03:53;;;;;;;3.58;0.80;;;;;;;;;;5037613;28;20242;-15
2022/04/01 09:06:21;;;;;;;2.03;0.60;;;;;;;;;;5046187;28;20236;-15
2022/04/01 09:08:48;;;;;;;1.20;0.60;;;;;;;;;;5050523;28;20222;-15
2022/04/01 09:11:16;;;;;;;6.47;1.00;;;;;;;;;;5048758;28;20248;-15
2022/04/01 09:13:47;;;;;;;2.05;0.80;;;;;;;;;;5047361;28;20906;-15
2022/04/01 09:16:22;;;;;;;2.65;0.82;;;;;;;;;;5038713;28;20230;-15
2022/04/01 09:18:52;;;;;;;5.55;1.05;;;;;;;;;;5049677;28;20509;-15
2022/04/01 09:21:19;;;;;;;3.92;1.20;;;;;;;;;;5051597;28;20230;-15
2022/04/01 09:23:47;;;;;;;5.65;1.10;;;;;;;;;;5048702;28;20244;-15
2022/04/01 09:26:16;;;;;;;9.07;1.45;;;;;;;;;;5054023;28;20317;-15
2022/04/01 09:28:43;;;;;;;6.07;1.20;;;;;;;;;;5053050;28;20237;-15
2022/04/01 09:31:12;;;;;;;4.68;1.08;;;;;;;;;;5042316;28;20250;-15
2022/04/01 09:34:06;;;;;;;8.70;1.48;;;;;;;;;;5031011;28;20229;-16
2022/04/01 09:36:33;;;;;;;6.53;1.70;;;;;;;;;;5035742;28;20237;-16
2022/04/01 09:39:02;;;;;;;10.93;1.20;;;;;;;;;;5034680;28;20227;-17
2022/04/01 09:41:31;;;;;;;3.63;1.33;;;;;;;;;;5031595;28;20718;-16
2022/04/01 09:44:19;;;;;;;4.18;1.13;;;;;;;;;;5034971;28;21061;-16
2022/04/01 09:46:47;;;;;;;5.85;1.42;;;;;;;;;;5031304;28;20232;-16
2022/04/01 09:49:28;;;;;;;4.77;1.40;;;;;;;;;;5034275;28;20443;-17
2022/04/01 09:52:01;;;;;;;3.97;1.50;;;;;;;;;;5025259;28;20505;-16
2022/04/01 09:54:29;;;;;;;5.45;1.10;;;;;;;;;;5032605;28;20439;-16
2022/04/01 09:56:58;;;;;;;2.10;1.15;;;;;;;;;;5031770;28;20867;-16
2022/04/01 09:59:31;;;;;;;2.13;1.00;;;;;;;;;;5031681;28;20254;-17
2022/04/01 10:01:59;;;;;;;4.60;1.30;;;;;;;;;;5020807;28;20241;-16
2022/04/01 10:04:27;;;;;;;7.38;1.50;;;;;;;;;;5031589;28;20504;-18
2022/04/01 10:06:55;;;;;;;4.75;1.15;;;;;;;;;;5027835;28;20238;-16
2022/04/01 10:09:23;;;;;;;5.05;1.40;;;;;;;;;;5032813;28;20427;-15
2022/04/01 10:12:11;;;;;;;4.72;1.50;;;;;;;;;;5028303;28;20702;-15
2022/04/01 10:14:40;;;;;;;3.17;1.38;;;;;;;;;;5028222;28;20701;-16
2022/04/01 10:17:24;;;;;;;4.28;1.67;;;;;;;;;;5030048;28;20238;-15
2022/04/01 10:19:53;;;;;;;1.92;1.13;;;;;;;;;;5034807;28;20226;-16
2022/04/01 10:22:21;;;;;;;2.22;1.40;;;;;;;;;;5029969;28;20957;-16
2022/04/01 10:24:49;;;;;;;1.83;1.30;;;;;;;;;;5027344;28;20250;-15
2022/04/01 10:27:17;;;;;;;1.77;1.38;;;;;;;;;;5030695;28;20234;-15
2022/04/01 10:29:45;;;;;;;1.80;1.35;;;;;;;;;;5032034;28;20240;-15
2022/04/01 10:32:22;;;;;;;2.28;1.38;;;;;;;;;;5029788;28;20243;-15
2022/04/01 10:34:49;;;;;;;5.67;1.70;;;;;;;;;;5031410;28;20437;-18
2022/04/01 10:37:18;;;;;;;1.95;1.40;;;;;;;;;;5030611;28;20230;-16
2022/04/01 10:39:49;;;;;;;2.15;1.60;;;;;;;;;;5029752;28;20234;-16
2022/04/01 10:42:16;;;;;;;5.35;1.80;;;;;;;;;;5032946;28;20531;-17
2022/04/01 10:44:44;;;;;;;3.17;1.40;;;;;;;;;;5031712;28;20238;-16
2022/04/01 10:47:19;;;;;;;5.05;1.40;;;;;;;;;;5027459;28;21020;-16
2022/04/01 10:52:34;;;;;;;6.38;1.50;;;;;;;;;;5039311;28;20379;-16
2022/04/01 10:55:09;;;;;;;4.95;1.42;;;;;;;;;;5043158;28;20230;-16
2022/04/01 10:57:39;;;;;;;7.47;1.63;;;;;;;;;;5034711;28;20238;-17
2022/04/01 11:00:07;;;;;;;5.13;2.00;;;;;;;;;;5039027;28;20242;-16
2022/04/01 11:02:35;;;;;;;3.53;1.48;;;;;;;;;;5029405;28;20230;-16
2022/04/01 11:05:21;;;;;;;6.10;1.30;;;;;;;;;;5042341;28;21117;-16
2022/04/01 11:07:51;;;;;;;4.53;1.63;;;;;;;;;;5036852;28;20615;-16
2022/04/01 11:10:24;;;;;;;4.15;1.63;;;;;;;;;;5043428;28;20248;-16
2022/04/01 11:12:51;;;;;;;7.38;1.60;;;;;;;;;;5036504;28;20249;-16
2022/04/01 11:15:25;;;;;;;3.17;1.73;;;;;;;;;;5043198;28;20230;-16
2022/04/01 11:18:00;;;;;;;4.30;1.70;;;;;;;;;;5046767;28;20233;-16
2022/04/01 11:20:27;;;;;;;3.33;1.90;;;;;;;;;;5041542;28;20238;-17
2022/04/01 11:23:10;;;;;;;4.88;1.98;;;;;;;;;;5039980;28;20241;-16
2022/04/01 11:26:02;;;;;;;4.38;1.70;;;;;;;;;;5036721;28;20249;-16
2022/04/01 11:28:30;;;;;;;2.55;1.65;;;;;;;;;;5047435;28;20244;-16
2022/04/01 11:31:07;;;;;;;3.40;1.60;;;;;;;;;;5044295;28;20234;-17
2022/04/01 11:33:35;;;;;;;2.65;1.77;;;;;;;;;;5041940;28;20284;-17
2022/04/01 11:36:03;;;;;;;2.60;1.75;;;;;;;;;;5035297;28;20238;-15
2022/04/01 11:38:31;;;;;;;3.47;1.85;;;;;;;;;;5042528;28;20262;-16
2022/04/01 11:41:00;;;;;;;4.28;2.00;;;;;;;;;;5042144;28;20231;-16
2022/04/01 11:43:28;;;;;;;2.55;1.70;;;;;;;;;;5042122;28;20234;-16
2022/04/01 11:45:57;;;;;;;3.60;1.88;;;;;;;;;;5037824;28;20230;-16
2022/04/01 11:48:26;;;;;;;2.55;1.50;;;;;;;;;;5041256;28;20238;-16
2022/04/01 11:50:54;;;;;;;3.13;1.90;;;;;;;;;;5041262;28;20780;-16
2022/04/01 11:53:22;;;;;;;2.53;1.90;;;;;;;;;;5038105;28;20247;-17
2022/04/01 11:55:50;;;;;;;3.65;2.00;;;;;;;;;;5043883;28;20439;-16
2022/04/01 11:58:18;;;;;;;3.10;1.88;;;;;;;;;;5037067;28;20230;-17
2022/04/01 12:00:45;;;;;;;2.67;1.73;;;;;;;;;;5039154;28;20430;-16
2022/04/01 12:03:13;;;;;;;3.78;1.90;;;;;;;;;;5036939;28;20233;-16
2022/04/01 12:05:40;;;;;;;2.95;1.83;;;;;;;;;;5037369;28;20724;-16
2022/04/01 12:10:54;;;;;;;6.63;3.05;;;;;;;;;;5035453;28;20251;-16
2022/04/01 12:13:22;;;;;;;5.22;2.10;;;;;;;;;;5035947;28;20250;-16
2022/04/01 12:15:49;;;;;;;6.85;2.97;;;;;;;;;;5038965;28;20737;-16
2022/04/01 12:18:18;;;;;;;6.13;2.38;;;;;;;;;;5035978;28;20239;-16
2022/04/01 12:20:45;;;;;;;5.47;2.47;;;;;;;;;;5036655;28;20230;-16
2022/04/01 12:23:14;;;;;;;7.38;2.45;;;;;;;;;;5047274;28;21167;-16
2022/04/01 12:25:42;;;;;;;5.95;2.60;;;;;;;;;;5043766;28;20328;-16
2022/04/01 12:28:11;;;;;;;7.43;2.22;;;;;;;;;;5039690;28;20238;-16
2022/04/01 12:30:40;;;;;;;5.05;2.50;;;;;;;;;;5040570;28;20241;-16
2022/04/01 12:33:08;;;;;;;4.18;2.55;;;;;;;;;;5041048;28;20246;-16
2022/04/01 12:35:47;;;;;;;4.82;2.25;;;;;;;;;;5040550;28;20238;-16
2022/04/01 12:38:14;;;;;;;2.60;2.20;;;;;;;;;;5041385;28;20239;-16
2022/04/01 12:40:49;;;;;;;2.35;1.90;;;;;;;;;;5041084;28;20341;-16
2022/04/01 12:43:34;;;;;;;3.13;2.20;;;;;;;;;;5039706;28;20281;-16
2022/04/01 12:46:02;;;;;;;2.17;1.98;;;;;;;;;;5034738;28;21237;-16
2022/04/01 12:48:29;;;;;;;3.40;2.22;;;;;;;;;;5041752;28;20276;-16
2022/04/01 12:51:03;;;;;;;2.40;2.10;;;;;;;;;;5042152;28;20230;-16
2022/04/01 12:53:31;;;;;;;4.43;2.28;;;;;;;;;;5033027;28;20981;-16
2022/04/01 12:56:13;;;;;;;5.00;2.20;;;;;;;;;;5045289;28;20244;-16
2022/04/01 12:58:48;;;;;;;2.95;2.15;;;;;;;;;;5027350;28;20231;-16
2022/04/01 13:01:18;;;;;;;3.15;2.35;;;;;;;;;;5039312;28;20234;-16
2022/04/01 13:03:51;;;;;;;5.45;2.60;;;;;;;;;;5035965;28;20312;-16
2022/04/01 13:06:23;;;;;;;4.35;1.90;;;;;;;;;;5039971;28;20234;-16
2022/04/01 13:08:57;;;;;;;3.00;2.17;;;;;;;;;;5042259;28;20237;-16
2022/04/01 13:11:24;;;;;;;3.17;1.95;;;;;;;;;;5045213;28;20237;-16
2022/04/01 13:13:53;;;;;;;2.95;2.10;;;;;;;;;;5034671;28;20718;-16
2022/04/01 13:16:20;;;;;;;2.55;1.92;;;;;;;;;;5036068;28;20238;-16
2022/04/01 13:18:48;;;;;;;2.45;1.98;;;;;;;;;;5039688;28;20324;-16
2022/04/01 13:21:17;;;;;;;2.83;2.30;;;;;;;;;;5040043;28;20238;-16
2022/04/01 13:23:45;;;;;;;4.72;2.42;;;;;;;;;;5032502;28;20235;-16
2022/04/01 13:26:16;;;;;;;3.25;2.13;;;;;;;;;;5029520;28;20235;-16
2022/04/01 13:28:44;;;;;;;11.15;2.67;;;;;;;;;;5035559;28;20408;-16
2022/04/01 13:31:12;;;;;;;6.03;2.08;;;;;;;;;;5034648;28;20234;-16
2022/04/01 13:33:40;;;;;;;4.72;2.20;;;;;;;;;;5031324;28;20249;-16
2022/04/01 13:36:07;;;;;;;4.30;2.10;;;;;;;;;;5032022;28;20234;-16
2022/04/01 13:38:35;;;;;;;5.38;2.30;;;;;;;;;;5032358;28;21296;-16
2022/04/01 13:41:03;;;;;;;4.72;2.13;;;;;;;;;;5042249;28;20921;-16
2022/04/01 13:43:30;;;;;;;4.45;2.13;;;;;;;;;;5039851;28;20226;-18
2022/04/01 13:45:57;;;;;;;3.40;2.10;;;;;;;;;;5041266;28;20708;-16
2022/04/01 13:48:26;;;;;;;4.53;2.15;;;;;;;;;;5031682;28;20235;-17
2022/04/01 13:50:54;;;;;;;2.85;1.65;;;;;;;;;;5031240;28;21047;-16
2022/04/01 13:53:21;;;;;;;4.60;2.20;;;;;;;;;;5032596;28;20234;-16
2022/04/01 13:55:49;;;;;;;3.38;1.85;;;;;;;;;;5041516;28;20239;-16
2022/04/01 13:58:16;;;;;;;4.15;2.00;;;;;;;;;;5038524;28;20234;-16
2022/04/01 14:00:44;;;;;;;4.32;1.70;;;;;;;;;;5037872;28;20238;-16
2022/04/01 14:03:11;;;;;;;3.63;1.88;;;;;;;;;;5038908;28;20648;-16
2022/04/01 14:05:40;;;;;;;4.28;2.08;;;;;;;;;;5045379;28;20242;-16
2022/04/01 14:08:08;;;;;;;3.40;1.70;;;;;;;;;;5037186;28;20239;-16
2022/04/01 14:10:35;;;;;;;4.00;1.90;;;;;;;;;;5037566;28;20685;-17
2022/04/01 14:13:03;;;;;;;3.47;1.40;;;;;;;;;;5043019;28;20234;-16
2022/04/01 14:15:36;;;;;;;5.00;1.83;;;;;;;;;;5033675;28;20242;-16
2022/04/01 14:18:04;;;;;;;3.85;1.75;;;;;;;;;;5037542;28;20248;-16
2022/04/01 14:20:31;;;;;;;2.50;1.58;;;;;;;;;;5040312;28;20814;-16
2022/04/01 14:23:00;;;;;;;2.65;1.60;;;;;;;;;;5041487;28;20289;-16
2022/04/01 14:25:27;;;;;;;2.22;1.45;;;;;;;;;;5039551;28;21013;-16
2022/04/01 14:27:55;;;;;;;1.50;1.40;;;;;;;;;;5040642;28;20229;-16
2022/04/01 14:30:22;;;;;;;3.00;1.55;;;;;;;;;;5037826;28;20238;-16
2022/04/01 14:32:52;;;;;;;3.55;1.75;;;;;;;;;;5033706;28;20246;-16
2022/04/01 14:35:19;;;;;;;3.53;1.33;;;;;;;;;;5043832;28;20238;-16
2022/04/01 14:37:47;;;;;;;3.55;1.48;;;;;;;;;;5041721;28;20477;-16
2022/04/01 14:40:16;;;;;;;4.78;1.50;;;;;;;;;;5038346;28;20277;-16
2022/04/01 14:42:43;;;;;;;2.58;1.33;;;;;;;;;;5037584;28;20238;-16
2022/04/01 14:45:11;;;;;;;1.60;1.17;;;;;;;;;;5040347;28;20242;-16
2022/04/01 14:47:38;;;;;;;4.25;1.40;;;;;;;;;;5044591;28;20598;-16
2022/04/01 14:50:06;;;;;;;3.17;1.02;;;;;;;;;;5040357;28;20233;-16
2022/04/01 14:52:33;;;;;;;2.55;1.27;;;;;;;;;;5028126;28;20242;-16
2022/04/01 14:55:01;;;;;;;2.33;1.30;;;;;;;;;;5034365;28;20412;-16
2022/04/01 14:57:29;;;;;;;10.05;1.55;;;;;;;;;;5045248;28;20226;-16
2022/04/01 14:59:57;;;;;;;8.80;1.40;;;;;;;;;;5036513;28;20421;-17
2022/04/01 15:02:25;;;;;;;7.88;1.33;;;;;;;;;;5045831;28;20234;-16
2022/04/01 15:04:54;;;;;;;9.32;1.73;;;;;;;;;;5035198;28;20231;-16
2022/04/01 15:07:22;;;;;;;4.53;1.60;;;;;;;;;;5043321;28;20249;-16